Time;durP1;ratioP1;P1;durP2;ratioP2;P2;SDS_P1;SDS_P2;PMS_P1;PMS_P2;Temp;Humidity;BMP_temperature;BMP_pressure;BME280_temperature;BME280_humidity;BME280_pressure;Samples;Min_cycle;Max_cycle;Signal;HPM_P1;HPM_P2
2023/08/20 00:01:21;;;;;;;23.63;16.05;;;;;;;18.89;100.00;101931.97;5077909;28;20032;-71
2023/08/20 00:03:47;;;;;;;24.33;16.45;;;;;;;18.84;100.00;101940.59;5081818;28;20407;-71
2023/08/20 00:06:13;;;;;;;21.83;15.80;;;;;;;18.79;100.00;101941.59;5076108;28;20377;-71
2023/08/20 00:08:39;;;;;;;23.70;16.35;;;;;;;18.76;100.00;101947.03;5089670;28;20093;-71
2023/08/20 00:11:05;;;;;;;24.45;16.17;;;;;;;18.62;100.00;101953.69;5087211;28;20032;-72
2023/08/20 00:13:30;;;;;;;24.13;16.52;;;;;;;18.60;100.00;101947.59;5091514;28;20121;-72
2023/08/20 00:15:56;;;;;;;24.50;16.23;;;;;;;18.56;100.00;101946.63;5073884;28;20016;-73
2023/08/20 00:18:22;;;;;;;23.73;15.88;;;;;;;18.54;100.00;101948.94;5071830;28;20032;-72
2023/08/20 00:20:47;;;;;;;21.85;15.60;;;;;;;18.49;100.00;101940.69;5076317;28;20036;-73
2023/08/20 00:23:13;;;;;;;22.40;15.55;;;;;;;18.46;100.00;101942.19;5072301;28;20028;-72
2023/08/20 00:25:38;;;;;;;23.63;16.33;;;;;;;18.42;100.00;101946.00;5072127;28;20028;-72
2023/08/20 00:28:04;;;;;;;23.98;16.10;;;;;;;18.32;100.00;101944.38;5090828;28;20094;-73
2023/08/20 00:30:30;;;;;;;25.10;17.02;;;;;;;18.25;100.00;101942.06;5082843;28;20451;-72
2023/08/20 00:32:55;;;;;;;23.80;16.80;;;;;;;18.14;100.00;101935.97;5083862;28;20360;-71
2023/08/20 00:35:21;;;;;;;24.02;16.85;;;;;;;18.05;100.00;101926.78;5087351;28;20016;-72
2023/08/20 00:37:47;;;;;;;22.50;16.35;;;;;;;17.99;100.00;101940.13;5092247;28;20028;-71
2023/08/20 00:40:12;;;;;;;22.10;17.02;;;;;;;17.95;100.00;101941.91;5083674;28;20478;-71
2023/08/20 00:42:38;;;;;;;22.42;16.85;;;;;;;17.93;100.00;101947.84;5076279;28;20036;-73
2023/08/20 00:45:04;;;;;;;22.42;16.42;;;;;;;17.96;100.00;101954.78;5075928;28;20024;-72
2023/08/20 00:47:29;;;;;;;24.77;16.60;;;;;;;17.89;100.00;101952.44;5082886;28;20051;-72
2023/08/20 00:49:56;;;;;;;22.38;16.63;;;;;;;17.87;100.00;101965.94;5088146;28;20025;-71
2023/08/20 00:52:22;;;;;;;22.02;16.20;;;;;;;17.83;100.00;101970.56;5077260;28;20046;-71
2023/08/20 00:54:48;;;;;;;22.05;16.40;;;;;;;17.77;100.00;101971.88;5091902;28;20016;-71
2023/08/20 00:57:17;;;;;;;21.40;16.70;;;;;;;17.76;100.00;101976.66;5085268;28;20016;-72
2023/08/20 00:59:43;;;;;;;22.25;16.67;;;;;;;17.75;100.00;101983.41;5087804;28;20036;-71
2023/08/20 01:02:08;;;;;;;23.00;16.70;;;;;;;17.77;100.00;101986.69;5091367;28;20353;-72
2023/08/20 01:04:34;;;;;;;24.17;17.42;;;;;;;17.77;100.00;101985.84;5075827;28;20024;-72
2023/08/20 01:07:23;;;;;;;22.52;17.52;;;;;;;17.86;100.00;101988.69;5081062;28;20517;-71
2023/08/20 01:10:06;;;;;;;23.60;18.17;;;;;;;17.90;100.00;101996.09;5098786;28;20028;-71
2023/08/20 01:12:34;;;;;;;22.38;17.58;;;;;;;17.96;100.00;101999.59;5071266;28;20032;-71
2023/08/20 01:14:59;;;;;;;24.33;17.35;;;;;;;18.03;100.00;102005.50;5089838;28;20036;-71
2023/08/20 01:17:24;;;;;;;23.58;16.98;;;;;;;18.11;100.00;102014.22;5072958;28;20039;-71
2023/08/20 01:19:50;;;;;;;24.67;17.40;;;;;;;18.13;100.00;102003.53;5091459;28;20074;-71
2023/08/20 01:22:33;;;;;;;21.50;16.45;;;;;;;18.14;100.00;102021.97;5085471;28;20776;-71
2023/08/20 01:25:28;;;;;;;23.85;17.33;;;;;;;18.19;100.00;102028.25;5078012;28;20033;-72
2023/08/20 01:28:24;;;;;;;22.23;16.50;;;;;;;18.22;100.00;102022.00;5078888;28;20059;-71
2023/08/20 01:30:49;;;;;;;24.30;16.80;;;;;;;18.22;100.00;102008.00;5090276;28;20067;-71
2023/08/20 01:33:15;;;;;;;23.40;16.65;;;;;;;18.26;100.00;102001.72;5081841;28;20029;-71
2023/08/20 01:35:41;;;;;;;22.92;16.70;;;;;;;18.29;100.00;102007.47;5080613;28;20062;-71
2023/08/20 01:38:06;;;;;;;25.23;17.83;;;;;;;18.28;100.00;102013.41;5078919;28;20029;-71
2023/08/20 01:40:31;;;;;;;23.63;17.25;;;;;;;18.29;100.00;102013.06;5086310;28;20032;-72
2023/08/20 01:42:57;;;;;;;25.25;17.63;;;;;;;18.28;100.00;102005.00;5087201;28;20024;-71
2023/08/20 01:45:23;;;;;;;25.42;18.63;;;;;;;18.22;100.00;101991.19;5091603;28;20056;-71
2023/08/20 01:47:48;;;;;;;25.73;17.88;;;;;;;18.25;100.00;101995.28;5091566;28;20044;-72
2023/08/20 01:50:13;;;;;;;26.92;18.10;;;;;;;18.21;100.00;101997.09;5085919;28;20031;-71
2023/08/20 01:52:39;;;;;;;24.88;18.70;;;;;;;18.18;100.00;102008.97;5091254;28;20028;-71
2023/08/20 01:55:05;;;;;;;24.80;18.35;;;;;;;18.13;100.00;102007.16;5083217;28;20388;-71
2023/08/20 01:57:31;;;;;;;26.80;18.55;;;;;;;18.15;100.00;102016.03;5089908;28;20032;-71
2023/08/20 01:59:57;;;;;;;23.35;18.33;;;;;;;18.13;100.00;102011.94;5083454;28;20025;-72
2023/08/20 02:02:23;;;;;;;25.63;18.85;;;;;;;18.17;100.00;102021.34;5071213;28;20380;-72
2023/08/20 02:04:48;;;;;;;25.30;19.13;;;;;;;18.15;100.00;102024.44;5074142;28;20546;-72
2023/08/20 02:07:13;;;;;;;22.35;18.15;;;;;;;18.15;100.00;102032.03;5081961;28;20024;-72
2023/08/20 02:09:39;;;;;;;24.73;18.55;;;;;;;18.13;100.00;102035.16;5090108;28;20449;-72
2023/08/20 02:12:04;;;;;;;26.92;19.02;;;;;;;18.12;100.00;102041.94;5085499;28;20480;-71
2023/08/20 02:14:33;;;;;;;23.20;18.55;;;;;;;18.16;100.00;102045.69;5071923;28;20431;-72
2023/08/20 02:16:58;;;;;;;25.15;18.15;;;;;;;18.15;100.00;102049.66;5071220;28;20025;-71
2023/08/20 02:19:24;;;;;;;24.52;18.65;;;;;;;18.15;100.00;102046.03;5072097;28;20829;-72
2023/08/20 02:21:49;;;;;;;23.90;17.25;;;;;;;18.13;100.00;102040.78;5074727;28;20047;-71
2023/08/20 02:24:14;;;;;;;27.92;18.27;;;;;;;18.11;100.00;102040.28;5086905;28;20057;-71
2023/08/20 02:26:40;;;;;;;23.80;17.52;;;;;;;18.08;100.00;102040.91;5073396;28;20036;-72
2023/08/20 02:29:05;;;;;;;26.70;18.25;;;;;;;18.03;100.00;102036.31;5081815;28;20056;-71
2023/08/20 02:31:30;;;;;;;24.08;18.00;;;;;;;17.96;100.00;102035.97;5086802;28;20055;-72
2023/08/20 02:33:56;;;;;;;25.38;18.33;;;;;;;17.90;100.00;102028.88;5074399;28;20027;-73
2023/08/20 02:36:21;;;;;;;23.77;18.33;;;;;;;17.88;100.00;102031.16;5075189;28;20029;-72
2023/08/20 02:38:46;;;;;;;24.27;17.67;;;;;;;17.84;100.00;102038.56;5070643;28;20024;-70
2023/08/20 02:41:12;;;;;;;24.88;18.13;;;;;;;17.80;100.00;102046.78;5075262;28;20528;-71
2023/08/20 02:43:37;;;;;;;25.92;17.45;;;;;;;17.76;100.00;102032.63;5088401;28;20028;-72
2023/08/20 02:46:03;;;;;;;24.40;17.63;;;;;;;17.72;100.00;102031.63;5079733;28;20029;-72
2023/08/20 02:48:29;;;;;;;25.52;18.05;;;;;;;17.70;100.00;102041.50;5076605;28;20507;-71
2023/08/20 02:50:54;;;;;;;23.23;18.23;;;;;;;17.71;100.00;102034.75;5082079;28;20032;-73
2023/08/20 02:53:21;;;;;;;23.83;17.73;;;;;;;17.68;100.00;102029.78;5091060;28;20391;-72
2023/08/20 02:55:46;;;;;;;24.17;18.00;;;;;;;17.65;100.00;102024.88;5089887;28;20028;-72
2023/08/20 02:58:11;;;;;;;24.77;18.05;;;;;;;17.59;100.00;102016.63;5091109;28;20448;-72
2023/08/20 03:00:37;;;;;;;24.13;17.95;;;;;;;17.57;100.00;102012.50;5084376;28;20032;-72
2023/08/20 03:03:05;;;;;;;24.35;17.95;;;;;;;17.55;100.00;102020.38;5089948;28;20028;-73
2023/08/20 03:05:31;;;;;;;24.38;18.48;;;;;;;17.48;100.00;102018.06;5072694;28;20029;-72
2023/08/20 03:07:57;;;;;;;23.08;17.55;;;;;;;17.44;100.00;102025.47;5083435;28;20444;-73
2023/08/20 03:10:23;;;;;;;23.50;17.58;;;;;;;17.37;100.00;102020.34;5079813;28;20064;-72
2023/08/20 03:12:49;;;;;;;25.23;18.15;;;;;;;17.35;100.00;102016.22;5094601;28;20558;-72
2023/08/20 03:15:14;;;;;;;23.63;18.77;;;;;;;17.30;100.00;102022.81;5088327;28;20016;-72
2023/08/20 03:17:39;;;;;;;25.63;18.67;;;;;;;17.25;100.00;102014.53;5074331;28;20037;-72
2023/08/20 03:20:06;;;;;;;24.23;18.20;;;;;;;17.20;100.00;102015.50;5079765;28;20059;-72
2023/08/20 03:22:32;;;;;;;23.75;18.10;;;;;;;17.11;100.00;102018.28;5083311;28;20127;-72
2023/08/20 03:24:57;;;;;;;24.30;18.48;;;;;;;17.08;100.00;102018.91;5094118;28;20090;-71
2023/08/20 03:27:23;;;;;;;24.75;18.15;;;;;;;17.04;100.00;102017.94;5086256;28;20024;-72
2023/08/20 03:29:48;;;;;;;26.15;18.70;;;;;;;17.00;100.00;102014.94;5077897;28;20032;-72
2023/08/20 03:32:14;;;;;;;24.85;18.15;;;;;;;16.95;100.00;102014.28;5078215;28;20119;-72
2023/08/20 03:34:39;;;;;;;23.65;17.70;;;;;;;16.95;100.00;102019.88;5073909;28;20028;-71
2023/08/20 03:37:04;;;;;;;23.90;18.05;;;;;;;16.85;100.00;102018.13;5076295;28;20052;-73
2023/08/20 03:39:31;;;;;;;24.35;18.55;;;;;;;16.81;100.00;102014.34;5074642;28;20472;-72
2023/08/20 03:41:56;;;;;;;25.80;19.10;;;;;;;16.78;100.00;102007.41;5080203;28;20063;-73
2023/08/20 03:44:22;;;;;;;24.90;18.15;;;;;;;16.76;100.00;102008.88;5086575;28;20059;-72
2023/08/20 03:46:47;;;;;;;27.15;18.80;;;;;;;16.74;100.00;102016.75;5076174;28;20036;-72
2023/08/20 03:49:12;;;;;;;23.85;18.83;;;;;;;16.70;100.00;102013.75;5073278;28;20372;-71
2023/08/20 03:51:38;;;;;;;23.90;18.60;;;;;;;16.68;100.00;102018.84;5073871;28;20475;-71
2023/08/20 03:54:03;;;;;;;25.65;18.60;;;;;;;16.63;100.00;102019.78;5073354;28;20464;-71
2023/08/20 03:56:29;;;;;;;24.45;17.77;;;;;;;16.64;100.00;102023.44;5086542;28;20065;-71
2023/08/20 03:58:54;;;;;;;25.40;18.00;;;;;;;16.58;100.00;102024.72;5088586;28;20024;-70
2023/08/20 04:01:20;;;;;;;28.98;24.23;;;;;;;16.53;100.00;102025.66;5076697;28;20119;-71
2023/08/20 04:03:46;;;;;;;27.42;23.42;;;;;;;16.49;100.00;102033.84;5075692;28;20035;-71
2023/08/20 04:06:11;;;;;;;26.65;20.55;;;;;;;16.43;100.00;102028.72;5077519;28;20392;-71
2023/08/20 04:08:37;;;;;;;23.58;18.77;;;;;;;16.44;100.00;102033.97;5076005;28;20032;-71
2023/08/20 04:11:03;;;;;;;27.02;19.25;;;;;;;16.40;100.00;102030.16;5086627;28;20063;-71
2023/08/20 04:13:28;;;;;;;26.13;19.38;;;;;;;16.37;100.00;102028.03;5072993;28;20024;-71
2023/08/20 04:15:54;;;;;;;24.30;18.15;;;;;;;16.36;100.00;102041.13;5080244;28;20020;-71
2023/08/20 04:18:19;;;;;;;26.25;18.67;;;;;;;16.35;100.00;102041.47;5087972;28;20116;-71
2023/08/20 04:20:44;;;;;;;25.42;19.17;;;;;;;16.32;100.00;102040.13;5082588;28;20031;-71
2023/08/20 04:23:10;;;;;;;23.90;18.23;;;;;;;16.30;100.00;102041.56;5072804;28;20074;-71
2023/08/20 04:25:35;;;;;;;24.17;18.27;;;;;;;16.27;100.00;102043.03;5081141;28;20420;-71
2023/08/20 04:28:00;;;;;;;25.67;18.83;;;;;;;16.22;100.00;102041.19;5092341;28;20035;-71
2023/08/20 04:30:26;;;;;;;24.80;17.92;;;;;;;16.23;100.00;102044.81;5087594;28;20051;-71
2023/08/20 04:32:51;;;;;;;25.20;17.95;;;;;;;16.19;100.00;102036.25;5081101;28;20028;-72
2023/08/20 04:35:17;;;;;;;26.05;19.00;;;;;;;16.14;100.00;102044.75;5088328;28;20020;-71
2023/08/20 04:37:43;;;;;;;24.38;19.13;;;;;;;16.17;100.00;102049.69;5072374;28;20020;-72
2023/08/20 04:40:08;;;;;;;26.38;19.13;;;;;;;16.18;100.00;102039.34;5072902;28;20024;-72
2023/08/20 04:42:34;;;;;;;24.63;18.17;;;;;;;16.19;100.00;102050.22;5072439;28;20029;-72
2023/08/20 04:44:59;;;;;;;24.20;17.00;;;;;;;16.20;100.00;102049.06;5071961;28;20586;-72
2023/08/20 04:47:25;;;;;;;24.30;17.30;;;;;;;16.17;100.00;102048.88;5075596;28;20536;-71
2023/08/20 04:49:50;;;;;;;24.27;17.80;;;;;;;16.17;100.00;102054.44;5072434;28;20107;-72
2023/08/20 04:52:15;;;;;;;22.88;17.15;;;;;;;16.15;100.00;102053.97;5079997;28;20036;-71
2023/08/20 04:54:41;;;;;;;24.42;17.85;;;;;;;16.18;100.00;102048.56;5071958;28;20021;-72
2023/08/20 04:57:06;;;;;;;29.42;21.10;;;;;;;16.19;100.00;102041.00;5072701;28;20433;-72
2023/08/20 04:59:31;;;;;;;27.67;19.27;;;;;;;16.22;100.00;102038.41;5091588;28;20028;-71
2023/08/20 05:01:57;;;;;;;25.98;18.80;;;;;;;16.23;100.00;102042.03;5082150;28;20031;-72
2023/08/20 05:04:22;;;;;;;23.52;17.52;;;;;;;16.22;100.00;102049.56;5094789;28;20020;-71
2023/08/20 05:06:47;;;;;;;25.60;17.10;;;;;;;16.28;100.00;102047.47;5079637;28;20468;-71
2023/08/20 05:09:13;;;;;;;23.92;17.25;;;;;;;16.32;100.00;102051.31;5084567;28;20143;-71
2023/08/20 05:11:38;;;;;;;25.90;17.58;;;;;;;16.32;100.00;102050.47;5071490;28;20082;-71
2023/08/20 05:14:04;;;;;;;25.88;17.80;;;;;;;16.35;100.00;102049.84;5078270;28;20073;-72
2023/08/20 05:16:29;;;;;;;22.95;16.48;;;;;;;16.36;100.00;102055.09;5079316;28;20059;-71
2023/08/20 05:18:54;;;;;;;25.00;16.75;;;;;;;16.40;100.00;102060.88;5083503;28;20187;-70
2023/08/20 05:21:20;;;;;;;24.92;17.58;;;;;;;16.43;100.00;102063.03;5089696;28;20032;-71
2023/08/20 05:23:45;;;;;;;23.83;17.13;;;;;;;16.50;100.00;102069.00;5078306;28;20156;-70
2023/08/20 05:26:10;;;;;;;24.92;18.10;;;;;;;16.62;100.00;102074.03;5078938;28;20118;-70
2023/08/20 05:28:36;;;;;;;24.67;16.40;;;;;;;16.78;100.00;102076.44;5071124;28;20038;-70
2023/08/20 05:31:01;;;;;;;25.25;17.63;;;;;;;16.83;100.00;102071.56;5081263;28;20051;-70
2023/08/20 05:33:26;;;;;;;25.55;17.70;;;;;;;16.89;100.00;102077.84;5071126;28;20073;-70
2023/08/20 05:35:52;;;;;;;25.67;17.80;;;;;;;16.95;100.00;102078.56;5071216;28;20031;-70
2023/08/20 05:38:17;;;;;;;24.42;17.38;;;;;;;17.03;100.00;102085.31;5084616;28;20040;-70
2023/08/20 05:40:43;;;;;;;24.80;16.98;;;;;;;17.12;100.00;102078.66;5087793;28;20074;-70
2023/08/20 05:43:09;;;;;;;23.52;16.67;;;;;;;17.23;100.00;102092.34;5079048;28;20445;-70
2023/08/20 05:45:34;;;;;;;23.58;16.65;;;;;;;17.27;100.00;102085.81;5089830;28;20027;-70
2023/08/20 05:48:00;;;;;;;23.95;16.58;;;;;;;17.35;100.00;102083.34;5080479;28;20499;-70
2023/08/20 05:50:25;;;;;;;24.23;16.75;;;;;;;17.41;100.00;102084.84;5071592;28;20107;-70
2023/08/20 05:52:52;;;;;;;24.45;16.65;;;;;;;17.48;100.00;102090.00;5070874;28;20036;-70
2023/08/20 05:55:17;;;;;;;25.38;16.50;;;;;;;17.51;100.00;102092.97;5075248;28;20106;-70
2023/08/20 05:57:43;;;;;;;26.35;16.65;;;;;;;17.56;100.00;102084.44;5086166;28;20131;-70
2023/08/20 06:00:10;;;;;;;24.60;15.75;;;;;;;17.67;100.00;102078.50;5075910;28;20012;-70
2023/08/20 06:02:35;;;;;;;24.20;15.55;;;;;;;17.75;100.00;102086.13;5075211;28;20028;-70
2023/08/20 06:05:00;;;;;;;25.08;15.57;;;;;;;17.84;100.00;102094.53;5089233;28;20012;-70
2023/08/20 06:07:26;;;;;;;23.85;14.65;;;;;;;17.97;100.00;102088.03;5076428;28;20073;-70
2023/08/20 06:09:51;;;;;;;22.75;14.55;;;;;;;18.04;100.00;102085.56;5088584;28;20379;-70
2023/08/20 06:12:17;;;;;;;22.48;13.85;;;;;;;18.15;100.00;102093.63;5078336;28;20102;-70
2023/08/20 06:14:42;;;;;;;24.27;13.82;;;;;;;18.22;100.00;102085.56;5090731;28;20031;-70
2023/08/20 06:17:08;;;;;;;21.77;13.45;;;;;;;18.29;100.00;102088.69;5077024;28;20116;-70
2023/08/20 06:19:33;;;;;;;21.60;13.88;;;;;;;18.39;100.00;102088.38;5088561;28;20038;-70
2023/08/20 06:21:59;;;;;;;20.27;12.93;;;;;;;18.44;100.00;102084.56;5078672;28;20024;-71
2023/08/20 06:24:24;;;;;;;22.10;13.32;;;;;;;18.53;100.00;102085.41;5086313;28;20039;-70
2023/08/20 06:26:51;;;;;;;21.25;12.50;;;;;;;18.60;100.00;102098.09;5081021;28;20037;-71
2023/08/20 06:29:16;;;;;;;21.90;12.07;;;;;;;18.64;100.00;102090.66;5079598;28;20057;-71
2023/08/20 06:31:41;;;;;;;23.90;12.10;;;;;;;18.70;100.00;102098.56;5079548;28;20049;-70
2023/08/20 06:34:07;;;;;;;22.23;12.30;;;;;;;18.78;100.00;102090.47;5077785;28;20160;-71
2023/08/20 06:36:32;;;;;;;21.98;12.38;;;;;;;18.89;100.00;102096.59;5078900;28;20392;-70
2023/08/20 06:38:57;;;;;;;23.70;12.75;;;;;;;18.97;100.00;102101.38;5070233;28;20380;-70
2023/08/20 06:41:23;;;;;;;21.75;12.40;;;;;;;19.06;100.00;102090.13;5075585;28;20479;-70
2023/08/20 06:43:48;;;;;;;23.58;12.20;;;;;;;19.15;100.00;102104.94;5091585;28;20035;-71
2023/08/20 06:46:14;;;;;;;22.63;12.40;;;;;;;19.20;100.00;102095.53;5086415;28;20503;-71
2023/08/20 06:48:39;;;;;;;22.00;12.60;;;;;;;19.30;100.00;102087.59;5079749;28;20024;-70
2023/08/20 06:51:15;;;;;;;23.33;12.48;;;;;;;19.39;100.00;102095.94;5086130;28;20024;-71
2023/08/20 06:53:40;;;;;;;23.55;13.32;;;;;;;19.45;100.00;102100.22;5074560;28;20032;-71
2023/08/20 06:56:08;;;;;;;21.95;12.38;;;;;;;19.51;100.00;102094.41;5078725;28;20043;-70
2023/08/20 06:58:33;;;;;;;22.50;12.48;;;;;;;19.54;99.66;102097.38;5088171;28;20485;-70
2023/08/20 07:01:06;;;;;;;24.42;12.77;;;;;;;19.56;98.40;102100.66;5089591;28;20041;-70
2023/08/20 07:03:43;;;;;;;23.30;12.95;;;;;;;19.61;98.94;102102.47;5089799;28;20111;-70
2023/08/20 07:06:09;;;;;;;21.70;12.15;;;;;;;19.56;96.37;102097.03;5088017;28;20416;-70
2023/08/20 07:08:35;;;;;;;22.85;11.18;;;;;;;19.52;94.84;102098.88;5083163;28;20031;-70
2023/08/20 07:11:01;;;;;;;19.27;11.30;;;;;;;19.49;95.32;102100.38;5086382;28;20065;-70
2023/08/20 07:13:26;;;;;;;19.40;11.02;;;;;;;19.46;92.92;102101.03;5083825;28;20385;-70
2023/08/20 07:15:52;;;;;;;18.35;10.10;;;;;;;19.48;92.39;102104.34;5086537;28;20898;-71
2023/08/20 07:18:17;;;;;;;20.20;10.30;;;;;;;19.52;92.83;102108.09;5077714;28;20024;-71
2023/08/20 07:20:43;;;;;;;19.23;9.88;;;;;;;19.59;91.97;102116.00;5092967;28;20126;-71
2023/08/20 07:23:09;;;;;;;18.63;10.55;;;;;;;19.60;91.91;102115.66;5079946;28;20028;-72
2023/08/20 07:25:40;;;;;;;19.52;10.15;;;;;;;19.64;91.74;102115.81;5073979;28;20039;-72
2023/08/20 07:28:06;;;;;;;19.98;9.98;;;;;;;19.70;92.32;102114.47;5075224;28;20051;-72
2023/08/20 07:30:32;;;;;;;18.27;10.02;;;;;;;19.79;92.67;102105.97;5082613;28;20591;-71
2023/08/20 07:32:58;;;;;;;19.02;10.35;;;;;;;19.86;93.67;102108.28;5081507;28;20024;-70
2023/08/20 07:35:23;;;;;;;20.92;10.65;;;;;;;19.94;94.48;102108.25;5085782;28;20024;-72
2023/08/20 07:37:49;;;;;;;21.45;10.88;;;;;;;19.94;93.46;102107.41;5091040;28;20632;-71
2023/08/20 07:40:14;;;;;;;21.90;11.02;;;;;;;19.98;94.69;102105.59;5091848;28;20503;-71
2023/08/20 07:42:40;;;;;;;19.23;11.10;;;;;;;19.98;94.13;102114.00;5090398;28;20035;-71
2023/08/20 07:45:07;;;;;;;21.70;10.85;;;;;;;20.04;91.86;102111.81;5090161;28;20051;-70
2023/08/20 07:47:33;;;;;;;20.08;10.50;;;;;;;20.08;92.10;102107.16;5092575;28;20024;-71
2023/08/20 07:49:58;;;;;;;18.15;9.88;;;;;;;20.16;91.79;102111.91;5088403;28;20031;-71
2023/08/20 07:52:24;;;;;;;19.38;10.23;;;;;;;20.26;89.60;102121.91;5091801;28;20101;-70
2023/08/20 07:54:49;;;;;;;19.50;10.40;;;;;;;20.35;90.87;102119.84;5091530;28;20032;-70
2023/08/20 07:57:15;;;;;;;20.85;10.68;;;;;;;20.41;89.32;102124.09;5092046;28;20032;-68
2023/08/20 07:59:40;;;;;;;20.55;10.70;;;;;;;20.49;89.06;102130.81;5091337;28;20404;-66
2023/08/20 08:02:05;;;;;;;18.90;10.10;;;;;;;20.57;88.06;102129.91;5091145;28;20024;-68
2023/08/20 08:04:31;;;;;;;18.92;10.70;;;;;;;20.65;88.60;102127.38;5091680;28;20035;-69
2023/08/20 08:06:56;;;;;;;21.80;10.55;;;;;;;20.71;89.43;102129.63;5091703;28;20102;-68
2023/08/20 08:09:27;;;;;;;19.10;10.27;;;;;;;20.80;90.31;102129.59;5091954;28;20024;-69
2023/08/20 08:11:53;;;;;;;22.88;11.73;;;;;;;20.86;89.99;102131.00;5091611;28;20633;-69
2023/08/20 08:14:18;;;;;;;19.95;11.20;;;;;;;20.93;89.22;102133.28;5090445;28;20021;-68
2023/08/20 08:16:45;;;;;;;19.50;10.75;;;;;;;21.00;89.35;102130.72;5091513;28;20106;-69
2023/08/20 08:19:10;;;;;;;18.55;10.77;;;;;;;21.07;88.42;102135.78;5091237;28;20103;-69
2023/08/20 08:21:36;;;;;;;19.33;10.88;;;;;;;21.15;87.48;102137.66;5091334;28;20038;-69
2023/08/20 08:24:02;;;;;;;18.98;10.70;;;;;;;21.22;87.61;102134.28;5091541;28;20034;-72
2023/08/20 08:26:28;;;;;;;19.95;10.65;;;;;;;21.25;86.01;102136.41;5091622;28;20047;-68
2023/08/20 08:28:53;;;;;;;19.33;10.73;;;;;;;21.34;85.04;102141.94;5091068;28;20431;-65
2023/08/20 08:31:18;;;;;;;16.85;9.90;;;;;;;21.45;86.32;102148.75;5091334;28;20040;-66
2023/08/20 08:33:43;;;;;;;19.77;10.93;;;;;;;21.51;83.98;102149.34;5091644;28;20129;-68
2023/08/20 08:36:09;;;;;;;19.20;10.40;;;;;;;21.50;83.88;102144.88;5091349;28;20170;-70
2023/08/20 08:38:36;;;;;;;18.65;10.95;;;;;;;21.59;84.58;102147.59;5091206;28;20119;-69
2023/08/20 08:41:03;;;;;;;19.15;11.00;;;;;;;21.63;84.02;102149.38;5090980;28;20115;-68
2023/08/20 08:43:31;;;;;;;19.40;10.65;;;;;;;21.59;80.82;102136.34;5090115;28;20020;-68
2023/08/20 08:45:57;;;;;;;17.38;10.32;;;;;;;21.72;81.26;102142.84;5090907;28;20529;-68
2023/08/20 08:48:22;;;;;;;15.98;9.90;;;;;;;21.81;81.62;102149.16;5090772;28;20032;-68
2023/08/20 08:50:50;;;;;;;16.77;9.70;;;;;;;21.91;80.82;102154.34;5090433;28;20028;-70
2023/08/20 08:53:16;;;;;;;17.13;10.02;;;;;;;21.97;81.56;102150.09;5090395;28;20132;-69
2023/08/20 08:55:41;;;;;;;13.80;9.40;;;;;;;22.04;78.68;102151.50;5083556;28;20111;-69
2023/08/20 08:58:06;;;;;;;17.45;9.70;;;;;;;22.07;75.64;102153.59;5079926;28;20036;-70
2023/08/20 09:00:32;;;;;;;16.48;9.70;;;;;;;22.12;74.94;102150.53;5090655;28;20020;-69
2023/08/20 09:02:58;;;;;;;16.70;9.63;;;;;;;22.26;77.49;102156.63;5090745;28;20765;-71
2023/08/20 09:05:23;;;;;;;15.88;9.50;;;;;;;22.28;73.34;102157.09;5090805;28;20032;-71
2023/08/20 09:07:55;;;;;;;17.80;9.70;;;;;;;22.44;75.75;102156.38;5077444;28;20028;-71
2023/08/20 09:10:21;;;;;;;17.02;9.68;;;;;;;22.47;73.56;102164.16;5070557;28;20106;-70
2023/08/20 09:12:47;;;;;;;16.10;9.45;;;;;;;22.55;74.68;102166.00;5070303;28;20032;-69
2023/08/20 09:15:13;;;;;;;16.40;9.60;;;;;;;22.67;72.12;102161.50;5071929;28;20052;-69
2023/08/20 09:17:42;;;;;;;16.90;9.38;;;;;;;22.71;71.21;102160.44;5080253;28;20448;-72
2023/08/20 09:20:07;;;;;;;18.35;9.70;;;;;;;22.87;73.18;102159.66;5070450;28;20107;-70
2023/08/20 09:22:35;;;;;;;14.55;9.02;;;;;;;22.96;68.02;102165.94;5070403;28;20155;-70
2023/08/20 09:25:02;;;;;;;14.88;9.32;;;;;;;23.05;68.59;102157.31;5081691;28;20082;-69
2023/08/20 09:27:27;;;;;;;15.18;8.93;;;;;;;23.12;67.41;102165.16;5090713;28;20463;-70
2023/08/20 09:29:59;;;;;;;14.57;9.60;;;;;;;23.26;67.55;102161.94;5088058;28;20085;-69
2023/08/20 09:32:27;;;;;;;14.43;8.60;;;;;;;23.34;64.52;102155.28;5086416;28;20492;-70
2023/08/20 09:34:54;;;;;;;12.57;8.88;;;;;;;23.47;64.12;102168.16;5091954;28;20540;-71
2023/08/20 09:37:21;;;;;;;11.07;8.77;;;;;;;23.62;63.58;102160.88;5091509;28;20098;-71
2023/08/20 09:39:47;;;;;;;15.23;8.88;;;;;;;23.71;63.80;102160.66;5090738;28;20036;-71
2023/08/20 09:42:13;;;;;;;10.52;8.52;;;;;;;23.69;62.59;102163.06;5089696;28;20020;-71
2023/08/20 09:44:40;;;;;;;15.85;8.82;;;;;;;23.72;63.67;102167.16;5088971;28;20064;-70
2023/08/20 09:47:10;;;;;;;14.35;8.90;;;;;;;23.72;65.22;102156.66;5089988;28;20020;-70
2023/08/20 09:49:39;;;;;;;12.95;8.10;;;;;;;23.78;58.79;102163.69;5089996;28;20148;-70
2023/08/20 09:52:07;;;;;;;12.30;8.43;;;;;;;23.75;58.83;102161.59;5090191;28;20031;-69
2023/08/20 09:55:03;;;;;;;12.10;8.48;;;;;;;23.91;64.40;102155.94;5089899;28;20031;-69
2023/08/20 09:57:40;;;;;;;12.13;8.10;;;;;;;23.86;58.73;102147.72;5089898;28;20055;-69
2023/08/20 10:00:09;;;;;;;10.38;8.07;;;;;;;24.02;58.15;102164.69;5089826;28;20028;-69
2023/08/20 10:02:35;;;;;;;12.60;8.18;;;;;;;24.12;56.84;102163.31;5089317;28;20032;-70
2023/08/20 10:05:03;;;;;;;13.50;7.80;;;;;;;24.17;56.92;102163.00;5089633;28;20032;-70
2023/08/20 10:07:31;;;;;;;11.98;8.32;;;;;;;24.18;58.27;102158.19;5090309;28;20035;-70
2023/08/20 10:10:01;;;;;;;12.38;8.10;;;;;;;24.19;56.44;102156.97;5089942;28;20036;-69
2023/08/20 10:12:30;;;;;;;11.93;8.23;;;;;;;24.27;58.25;102158.81;5088143;28;20024;-70
2023/08/20 10:14:57;;;;;;;10.55;8.02;;;;;;;24.26;56.68;102160.00;5079563;28;20793;-71
2023/08/20 10:17:23;;;;;;;11.30;7.88;;;;;;;24.30;54.62;102164.53;5077708;28;20032;-68
2023/08/20 10:19:51;;;;;;;9.73;7.80;;;;;;;24.35;54.61;102159.75;5076819;28;20062;-69
2023/08/20 10:22:17;;;;;;;10.50;7.80;;;;;;;24.52;53.33;102164.19;5074102;28;20029;-69
2023/08/20 10:24:51;;;;;;;10.77;7.82;;;;;;;24.58;55.68;102157.03;5080501;28;20039;-71
2023/08/20 10:27:28;;;;;;;10.35;8.07;;;;;;;24.52;55.25;102139.53;5077986;28;20538;-69
2023/08/20 10:29:54;;;;;;;11.32;8.27;;;;;;;24.65;52.67;102156.38;5091774;28;20047;-69
2023/08/20 10:32:40;;;;;;;10.90;8.05;;;;;;;24.72;53.86;102148.06;5089755;28;20030;-69
2023/08/20 10:35:06;;;;;;;11.90;8.07;;;;;;;24.83;52.43;102156.78;5079145;28;20036;-68
2023/08/20 10:37:32;;;;;;;12.60;8.00;;;;;;;24.84;53.13;102161.25;5077136;28;20089;-69
2023/08/20 10:39:58;;;;;;;12.00;8.18;;;;;;;24.95;53.43;102158.63;5093004;28;20032;-69
2023/08/20 10:42:27;;;;;;;11.70;8.00;;;;;;;24.99;51.25;102162.31;5088589;28;20472;-69
2023/08/20 10:45:00;;;;;;;14.13;8.10;;;;;;;25.02;50.95;102162.41;5089752;28;20032;-69
2023/08/20 10:47:36;;;;;;;13.65;8.05;;;;;;;25.05;52.84;102153.16;5092911;28;20060;-70
2023/08/20 10:50:02;;;;;;;10.27;7.68;;;;;;;25.17;51.33;102162.69;5088180;28;20032;-70
2023/08/20 10:52:27;;;;;;;12.25;8.10;;;;;;;25.21;50.28;102157.91;5088174;28;20182;-70
2023/08/20 10:54:55;;;;;;;14.07;7.80;;;;;;;25.27;50.35;102149.94;5091652;28;20484;-70
2023/08/20 10:57:21;;;;;;;12.48;8.23;;;;;;;25.32;49.66;102161.72;5092320;28;20823;-69
2023/08/20 11:00:00;;;;;;;12.52;7.90;;;;;;;25.36;50.87;102159.00;5092144;28;20483;-70
2023/08/20 11:02:26;;;;;;;10.60;7.75;;;;;;;25.49;51.11;102157.63;5092862;28;20107;-70
2023/08/20 11:04:53;;;;;;;11.57;8.00;;;;;;;25.59;50.71;102161.84;5091469;28;20539;-70